sensor_id;sensor_type;location;lat;lon;timestamp;P1;durP1;ratioP1;P2;durP2;ratioP2
50555;SDS011;36508;52.512;13.450;2023-05-10T00:00:35;7.37;;;6.77;;
50555;SDS011;36508;52.512;13.450;2023-05-10T00:03:00;8.00;;;7.40;;
50555;SDS011;36508;52.512;13.450;2023-05-10T00:05:26;6.10;;;5.63;;
50555;SDS011;36508;52.512;13.450;2023-05-10T00:07:51;8.03;;;7.47;;
50555;SDS011;36508;52.512;13.450;2023-05-10T00:10:17;8.90;;;8.20;;
50555;SDS011;36508;52.512;13.450;2023-05-10T00:12:43;7.30;;;6.80;;
50555;SDS011;36508;52.512;13.450;2023-05-10T00:15:17;7.30;;;6.90;;
50555;SDS011;36508;52.512;13.450;2023-05-10T00:18:05;6.67;;;6.27;;
50555;SDS011;36508;52.512;13.450;2023-05-10T00:20:45;6.70;;;6.30;;
50555;SDS011;36508;52.512;13.450;2023-05-10T00:23:25;8.70;;;7.90;;
50555;SDS011;36508;52.512;13.450;2023-05-10T00:25:50;7.13;;;6.63;;
50555;SDS011;36508;52.512;13.450;2023-05-10T00:28:22;6.67;;;6.17;;
50555;SDS011;36508;52.512;13.450;2023-05-10T00:30:53;9.70;;;8.47;;
50555;SDS011;36508;52.512;13.450;2023-05-10T00:33:28;7.30;;;6.70;;
50555;SDS011;36508;52.512;13.450;2023-05-10T00:36:07;7.37;;;6.87;;
50555;SDS011;36508;52.512;13.450;2023-05-10T00:38:42;6.63;;;6.13;;
50555;SDS011;36508;52.512;13.450;2023-05-10T00:41:25;7.23;;;6.70;;
50555;SDS011;36508;52.512;13.450;2023-05-10T00:44:06;9.27;;;8.50;;
50555;SDS011;36508;52.512;13.450;2023-05-10T00:46:34;7.40;;;6.80;;
50555;SDS011;36508;52.512;13.450;2023-05-10T00:49:01;6.47;;;5.97;;
50555;SDS011;36508;52.512;13.450;2023-05-10T00:51:27;7.10;;;6.67;;
50555;SDS011;36508;52.512;13.450;2023-05-10T00:53:55;7.87;;;7.27;;
50555;SDS011;36508;52.512;13.450;2023-05-10T00:56:30;7.50;;;6.97;;
50555;SDS011;36508;52.512;13.450;2023-05-10T01:02:09;6.97;;;6.57;;
50555;SDS011;36508;52.512;13.450;2023-05-10T01:04:45;7.67;;;7.17;;
50555;SDS011;36508;52.512;13.450;2023-05-10T01:07:11;8.23;;;7.50;;
50555;SDS011;36508;52.512;13.450;2023-05-10T01:09:36;8.53;;;7.93;;
50555;SDS011;36508;52.512;13.450;2023-05-10T01:12:02;8.77;;;8.17;;
50555;SDS011;36508;52.512;13.450;2023-05-10T01:14:28;8.03;;;7.43;;
50555;SDS011;36508;52.512;13.450;2023-05-10T01:16:55;6.83;;;6.33;;
50555;SDS011;36508;52.512;13.450;2023-05-10T01:19:28;7.43;;;6.93;;
50555;SDS011;36508;52.512;13.450;2023-05-10T01:22:04;7.87;;;7.30;;
50555;SDS011;36508;52.512;13.450;2023-05-10T01:34:06;6.90;;;6.50;;
50555;SDS011;36508;52.512;13.450;2023-05-10T01:36:45;7.73;;;7.10;;
50555;SDS011;36508;52.512;13.450;2023-05-10T01:39:32;7.50;;;6.97;;
50555;SDS011;36508;52.512;13.450;2023-05-10T01:42:09;8.80;;;8.10;;
50555;SDS011;36508;52.512;13.450;2023-05-10T01:44:57;10.50;;;7.47;;
50555;SDS011;36508;52.512;13.450;2023-05-10T01:47:37;8.47;;;7.77;;
50555;SDS011;36508;52.512;13.450;2023-05-10T01:50:08;8.50;;;7.90;;
50555;SDS011;36508;52.512;13.450;2023-05-10T01:52:44;8.10;;;7.43;;
50555;SDS011;36508;52.512;13.450;2023-05-10T01:55:15;6.90;;;6.40;;
50555;SDS011;36508;52.512;13.450;2023-05-10T01:57:43;6.70;;;6.20;;
50555;SDS011;36508;52.512;13.450;2023-05-10T02:00:11;8.50;;;7.70;;
50555;SDS011;36508;52.512;13.450;2023-05-10T02:02:42;7.80;;;7.20;;
50555;SDS011;36508;52.512;13.450;2023-05-10T02:05:11;8.20;;;7.60;;
50555;SDS011;36508;52.512;13.450;2023-05-10T02:07:41;8.37;;;7.57;;
50555;SDS011;36508;52.512;13.450;2023-05-10T02:10:08;7.47;;;6.87;;
50555;SDS011;36508;52.512;13.450;2023-05-10T02:12:36;8.03;;;7.43;;
50555;SDS011;36508;52.512;13.450;2023-05-10T02:15:06;7.47;;;6.97;;
50555;SDS011;36508;52.512;13.450;2023-05-10T02:17:37;7.83;;;7.03;;
50555;SDS011;36508;52.512;13.450;2023-05-10T02:20:05;7.50;;;7.00;;
50555;SDS011;36508;52.512;13.450;2023-05-10T02:22:31;7.20;;;6.70;;
50555;SDS011;36508;52.512;13.450;2023-05-10T02:25:00;7.10;;;6.50;;
50555;SDS011;36508;52.512;13.450;2023-05-10T02:27:27;6.40;;;5.97;;
50555;SDS011;36508;52.512;13.450;2023-05-10T02:29:55;8.70;;;6.93;;
50555;SDS011;36508;52.512;13.450;2023-05-10T02:32:24;7.10;;;6.60;;
50555;SDS011;36508;52.512;13.450;2023-05-10T02:34:51;7.50;;;7.03;;
50555;SDS011;36508;52.512;13.450;2023-05-10T02:37:21;8.07;;;7.47;;
50555;SDS011;36508;52.512;13.450;2023-05-10T02:39:48;7.47;;;6.77;;
50555;SDS011;36508;52.512;13.450;2023-05-10T02:42:17;9.67;;;7.23;;
50555;SDS011;36508;52.512;13.450;2023-05-10T02:44:51;8.70;;;7.77;;
50555;SDS011;36508;52.512;13.450;2023-05-10T02:47:24;7.47;;;6.90;;
50555;SDS011;36508;52.512;13.450;2023-05-10T02:49:53;7.13;;;6.43;;
50555;SDS011;36508;52.512;13.450;2023-05-10T02:52:21;8.60;;;7.90;;
50555;SDS011;36508;52.512;13.450;2023-05-10T02:54:52;8.83;;;6.97;;
50555;SDS011;36508;52.512;13.450;2023-05-10T02:57:27;7.27;;;6.80;;
50555;SDS011;36508;52.512;13.450;2023-05-10T02:59:56;7.03;;;6.53;;
50555;SDS011;36508;52.512;13.450;2023-05-10T03:02:22;9.33;;;6.70;;
50555;SDS011;36508;52.512;13.450;2023-05-10T03:04:48;6.83;;;6.33;;
50555;SDS011;36508;52.512;13.450;2023-05-10T03:07:14;6.80;;;6.30;;
50555;SDS011;36508;52.512;13.450;2023-05-10T03:09:40;7.83;;;5.80;;
50555;SDS011;36508;52.512;13.450;2023-05-10T03:20:56;8.47;;;7.77;;
50555;SDS011;36508;52.512;13.450;2023-05-10T03:23:27;7.00;;;6.27;;
50555;SDS011;36508;52.512;13.450;2023-05-10T03:26:09;13.70;;;8.37;;
50555;SDS011;36508;52.512;13.450;2023-05-10T03:28:43;10.50;;;7.40;;
50555;SDS011;36508;52.512;13.450;2023-05-10T03:31:10;6.73;;;6.07;;
50555;SDS011;36508;52.512;13.450;2023-05-10T03:33:45;7.10;;;6.43;;
50555;SDS011;36508;52.512;13.450;2023-05-10T03:36:14;7.60;;;5.93;;
50555;SDS011;36508;52.512;13.450;2023-05-10T03:38:39;5.60;;;5.30;;
50555;SDS011;36508;52.512;13.450;2023-05-10T03:41:05;6.80;;;6.20;;
50555;SDS011;36508;52.512;13.450;2023-05-10T03:43:36;6.80;;;6.20;;
50555;SDS011;36508;52.512;13.450;2023-05-10T03:46:02;8.77;;;5.70;;
50555;SDS011;36508;52.512;13.450;2023-05-10T03:48:29;6.90;;;6.40;;
50555;SDS011;36508;52.512;13.450;2023-05-10T03:50:55;6.37;;;5.90;;
50555;SDS011;36508;52.512;13.450;2023-05-10T03:53:21;7.77;;;6.90;;
50555;SDS011;36508;52.512;13.450;2023-05-10T03:55:48;6.47;;;5.97;;
50555;SDS011;36508;52.512;13.450;2023-05-10T03:58:13;6.07;;;5.57;;
50555;SDS011;36508;52.512;13.450;2023-05-10T04:00:40;6.73;;;6.10;;
50555;SDS011;36508;52.512;13.450;2023-05-10T04:03:09;9.30;;;7.13;;
50555;SDS011;36508;52.512;13.450;2023-05-10T04:05:35;11.93;;;7.83;;
50555;SDS011;36508;52.512;13.450;2023-05-10T04:08:01;6.77;;;6.23;;
50555;SDS011;36508;52.512;13.450;2023-05-10T04:10:27;8.20;;;6.77;;
50555;SDS011;36508;52.512;13.450;2023-05-10T04:12:53;6.87;;;6.33;;
50555;SDS011;36508;52.512;13.450;2023-05-10T04:15:19;8.77;;;7.97;;
50555;SDS011;36508;52.512;13.450;2023-05-10T04:17:44;6.50;;;5.90;;
50555;SDS011;36508;52.512;13.450;2023-05-10T04:20:10;8.03;;;5.63;;
50555;SDS011;36508;52.512;13.450;2023-05-10T04:22:41;7.03;;;6.43;;
50555;SDS011;36508;52.512;13.450;2023-05-10T04:25:07;5.80;;;5.30;;
50555;SDS011;36508;52.512;13.450;2023-05-10T04:27:33;6.63;;;6.13;;
50555;SDS011;36508;52.512;13.450;2023-05-10T04:29:59;6.70;;;6.10;;
50555;SDS011;36508;52.512;13.450;2023-05-10T04:32:25;7.40;;;5.70;;
50555;SDS011;36508;52.512;13.450;2023-05-10T04:34:50;7.17;;;5.73;;
50555;SDS011;36508;52.512;13.450;2023-05-10T04:37:16;6.97;;;6.07;;
50555;SDS011;36508;52.512;13.450;2023-05-10T04:39:42;6.80;;;6.30;;
50555;SDS011;36508;52.512;13.450;2023-05-10T04:42:08;5.80;;;5.00;;
50555;SDS011;36508;52.512;13.450;2023-05-10T04:44:34;5.67;;;5.37;;
50555;SDS011;36508;52.512;13.450;2023-05-10T04:47:01;6.27;;;5.77;;
50555;SDS011;36508;52.512;13.450;2023-05-10T04:49:28;6.07;;;5.13;;
50555;SDS011;36508;52.512;13.450;2023-05-10T04:51:54;5.60;;;5.10;;
50555;SDS011;36508;52.512;13.450;2023-05-10T04:54:20;6.33;;;5.83;;
50555;SDS011;36508;52.512;13.450;2023-05-10T04:56:49;6.50;;;5.90;;
50555;SDS011;36508;52.512;13.450;2023-05-10T04:59:15;6.33;;;5.70;;
50555;SDS011;36508;52.512;13.450;2023-05-10T05:01:40;5.93;;;5.33;;
50555;SDS011;36508;52.512;13.450;2023-05-10T05:04:06;8.10;;;5.33;;
50555;SDS011;36508;52.512;13.450;2023-05-10T05:06:31;5.03;;;4.63;;
50555;SDS011;36508;52.512;13.450;2023-05-10T05:08:57;6.43;;;5.83;;
50555;SDS011;36508;52.512;13.450;2023-05-10T05:11:26;5.97;;;5.60;;
50555;SDS011;36508;52.512;13.450;2023-05-10T05:13:52;5.93;;;5.43;;
50555;SDS011;36508;52.512;13.450;2023-05-10T05:16:17;5.57;;;5.03;;
50555;SDS011;36508;52.512;13.450;2023-05-10T05:18:43;7.07;;;5.47;;
50555;SDS011;36508;52.512;13.450;2023-05-10T05:21:16;5.90;;;5.37;;
50555;SDS011;36508;52.512;13.450;2023-05-10T05:23:42;6.13;;;5.63;;
50555;SDS011;36508;52.512;13.450;2023-05-10T05:26:07;7.20;;;5.47;;
50555;SDS011;36508;52.512;13.450;2023-05-10T05:28:33;6.43;;;5.60;;
50555;SDS011;36508;52.512;13.450;2023-05-10T05:31:02;6.77;;;6.27;;
50555;SDS011;36508;52.512;13.450;2023-05-10T05:33:30;15.57;;;5.33;;
50555;SDS011;36508;52.512;13.450;2023-05-10T05:35:56;4.97;;;4.67;;
50555;SDS011;36508;52.512;13.450;2023-05-10T05:38:22;5.30;;;5.00;;
50555;SDS011;36508;52.512;13.450;2023-05-10T05:40:48;5.67;;;5.27;;
50555;SDS011;36508;52.512;13.450;2023-05-10T05:43:14;5.40;;;4.90;;
50555;SDS011;36508;52.512;13.450;2023-05-10T05:45:40;4.83;;;4.53;;
50555;SDS011;36508;52.512;13.450;2023-05-10T05:48:05;5.47;;;5.10;;
50555;SDS011;36508;52.512;13.450;2023-05-10T05:50:34;4.83;;;4.43;;
50555;SDS011;36508;52.512;13.450;2023-05-10T05:52:59;5.97;;;5.10;;
50555;SDS011;36508;52.512;13.450;2023-05-10T05:55:25;5.60;;;5.27;;
50555;SDS011;36508;52.512;13.450;2023-05-10T05:57:51;6.20;;;5.00;;
50555;SDS011;36508;52.512;13.450;2023-05-10T06:00:17;4.80;;;4.40;;
50555;SDS011;36508;52.512;13.450;2023-05-10T06:02:43;5.03;;;4.30;;
50555;SDS011;36508;52.512;13.450;2023-05-10T06:05:09;7.43;;;5.60;;
50555;SDS011;36508;52.512;13.450;2023-05-10T06:07:34;7.90;;;5.00;;
50555;SDS011;36508;52.512;13.450;2023-05-10T06:10:00;5.13;;;4.40;;
50555;SDS011;36508;52.512;13.450;2023-05-10T06:12:26;4.47;;;4.07;;
50555;SDS011;36508;52.512;13.450;2023-05-10T06:14:51;5.47;;;4.97;;
50555;SDS011;36508;52.512;13.450;2023-05-10T06:17:17;4.50;;;4.10;;
50555;SDS011;36508;52.512;13.450;2023-05-10T06:19:43;3.87;;;3.57;;
50555;SDS011;36508;52.512;13.450;2023-05-10T06:22:08;5.77;;;5.27;;
50555;SDS011;36508;52.512;13.450;2023-05-10T06:24:34;8.10;;;4.13;;
50555;SDS011;36508;52.512;13.450;2023-05-10T06:26:59;4.30;;;4.00;;
50555;SDS011;36508;52.512;13.450;2023-05-10T06:29:25;4.60;;;4.20;;
50555;SDS011;36508;52.512;13.450;2023-05-10T06:31:51;3.87;;;3.57;;
50555;SDS011;36508;52.512;13.450;2023-05-10T06:34:16;6.23;;;4.07;;
50555;SDS011;36508;52.512;13.450;2023-05-10T06:36:42;3.60;;;3.30;;
50555;SDS011;36508;52.512;13.450;2023-05-10T06:39:08;4.70;;;4.27;;
50555;SDS011;36508;52.512;13.450;2023-05-10T06:41:36;4.40;;;3.43;;
50555;SDS011;36508;52.512;13.450;2023-05-10T06:44:02;3.93;;;3.63;;
50555;SDS011;36508;52.512;13.450;2023-05-10T06:46:28;5.40;;;5.00;;
50555;SDS011;36508;52.512;13.450;2023-05-10T06:48:54;3.80;;;3.60;;
50555;SDS011;36508;52.512;13.450;2023-05-10T06:51:20;3.97;;;3.67;;
50555;SDS011;36508;52.512;13.450;2023-05-10T06:53:46;3.60;;;3.30;;
50555;SDS011;36508;52.512;13.450;2023-05-10T06:56:12;4.07;;;3.73;;
50555;SDS011;36508;52.512;13.450;2023-05-10T06:58:38;3.77;;;3.47;;
50555;SDS011;36508;52.512;13.450;2023-05-10T07:01:04;4.27;;;3.87;;
50555;SDS011;36508;52.512;13.450;2023-05-10T07:03:33;4.87;;;4.33;;
50555;SDS011;36508;52.512;13.450;2023-05-10T07:06:02;3.83;;;3.53;;
50555;SDS011;36508;52.512;13.450;2023-05-10T07:08:31;4.30;;;4.00;;
50555;SDS011;36508;52.512;13.450;2023-05-10T07:11:04;4.53;;;4.13;;
50555;SDS011;36508;52.512;13.450;2023-05-10T07:13:32;6.83;;;4.10;;
50555;SDS011;36508;52.512;13.450;2023-05-10T07:15:58;4.50;;;4.10;;
50555;SDS011;36508;52.512;13.450;2023-05-10T07:18:25;4.60;;;4.30;;
50555;SDS011;36508;52.512;13.450;2023-05-10T07:20:51;13.20;;;4.70;;
50555;SDS011;36508;52.512;13.450;2023-05-10T07:23:17;3.67;;;3.47;;
50555;SDS011;36508;52.512;13.450;2023-05-10T07:25:49;4.60;;;3.40;;
50555;SDS011;36508;52.512;13.450;2023-05-10T07:28:19;4.63;;;4.07;;
50555;SDS011;36508;52.512;13.450;2023-05-10T07:30:45;3.90;;;3.60;;
50555;SDS011;36508;52.512;13.450;2023-05-10T07:33:12;4.30;;;3.90;;
50555;SDS011;36508;52.512;13.450;2023-05-10T07:35:38;8.23;;;7.63;;
50555;SDS011;36508;52.512;13.450;2023-05-10T07:38:04;4.63;;;4.23;;
50555;SDS011;36508;52.512;13.450;2023-05-10T07:40:30;6.43;;;4.37;;
50555;SDS011;36508;52.512;13.450;2023-05-10T07:42:56;4.03;;;3.80;;
50555;SDS011;36508;52.512;13.450;2023-05-10T07:45:22;5.97;;;3.93;;
50555;SDS011;36508;52.512;13.450;2023-05-10T07:47:48;6.43;;;4.10;;
50555;SDS011;36508;52.512;13.450;2023-05-10T07:50:14;4.90;;;4.50;;
50555;SDS011;36508;52.512;13.450;2023-05-10T07:52:40;5.30;;;4.80;;
50555;SDS011;36508;52.512;13.450;2023-05-10T07:55:06;3.60;;;3.30;;
50555;SDS011;36508;52.512;13.450;2023-05-10T07:57:36;5.20;;;3.53;;
50555;SDS011;36508;52.512;13.450;2023-05-10T08:00:02;4.77;;;3.77;;
50555;SDS011;36508;52.512;13.450;2023-05-10T08:02:28;5.37;;;4.20;;
50555;SDS011;36508;52.512;13.450;2023-05-10T08:04:53;4.80;;;4.50;;
50555;SDS011;36508;52.512;13.450;2023-05-10T08:07:19;5.40;;;4.53;;
50555;SDS011;36508;52.512;13.450;2023-05-10T08:09:44;5.27;;;4.80;;
50555;SDS011;36508;52.512;13.450;2023-05-10T08:12:10;6.00;;;4.53;;
50555;SDS011;36508;52.512;13.450;2023-05-10T08:14:36;6.37;;;4.47;;
50555;SDS011;36508;52.512;13.450;2023-05-10T08:17:02;5.97;;;4.57;;
50555;SDS011;36508;52.512;13.450;2023-05-10T08:19:28;5.90;;;5.30;;
50555;SDS011;36508;52.512;13.450;2023-05-10T08:21:54;4.70;;;3.10;;
50555;SDS011;36508;52.512;13.450;2023-05-10T08:24:22;3.80;;;3.50;;
50555;SDS011;36508;52.512;13.450;2023-05-10T08:26:49;5.33;;;4.83;;
50555;SDS011;36508;52.512;13.450;2023-05-10T08:29:15;5.50;;;3.63;;
50555;SDS011;36508;52.512;13.450;2023-05-10T08:31:40;3.97;;;3.77;;
50555;SDS011;36508;52.512;13.450;2023-05-10T08:34:06;4.83;;;4.43;;
50555;SDS011;36508;52.512;13.450;2023-05-10T08:36:35;4.87;;;4.47;;
50555;SDS011;36508;52.512;13.450;2023-05-10T08:39:01;4.00;;;3.80;;
50555;SDS011;36508;52.512;13.450;2023-05-10T08:41:27;4.83;;;4.17;;
50555;SDS011;36508;52.512;13.450;2023-05-10T08:43:55;14.07;;;4.83;;
50555;SDS011;36508;52.512;13.450;2023-05-10T08:46:21;4.30;;;3.90;;
50555;SDS011;36508;52.512;13.450;2023-05-10T08:48:48;4.83;;;4.53;;
50555;SDS011;36508;52.512;13.450;2023-05-10T08:51:17;4.80;;;4.20;;
50555;SDS011;36508;52.512;13.450;2023-05-10T08:53:47;3.37;;;3.07;;
50555;SDS011;36508;52.512;13.450;2023-05-10T08:56:13;3.70;;;3.50;;
50555;SDS011;36508;52.512;13.450;2023-05-10T08:58:40;4.37;;;4.03;;
50555;SDS011;36508;52.512;13.450;2023-05-10T09:04:21;5.20;;;3.03;;
50555;SDS011;36508;52.512;13.450;2023-05-10T09:06:50;4.80;;;4.40;;
50555;SDS011;36508;52.512;13.450;2023-05-10T09:09:16;4.00;;;3.80;;
50555;SDS011;36508;52.512;13.450;2023-05-10T09:11:43;4.83;;;4.23;;
50555;SDS011;36508;52.512;13.450;2023-05-10T09:14:12;4.43;;;4.03;;
50555;SDS011;36508;52.512;13.450;2023-05-10T09:16:40;4.47;;;4.07;;
50555;SDS011;36508;52.512;13.450;2023-05-10T09:19:06;4.80;;;4.40;;
50555;SDS011;36508;52.512;13.450;2023-05-10T09:21:34;4.37;;;3.83;;
50555;SDS011;36508;52.512;13.450;2023-05-10T09:24:03;4.77;;;3.63;;
50555;SDS011;36508;52.512;13.450;2023-05-10T09:26:30;3.90;;;3.60;;
50555;SDS011;36508;52.512;13.450;2023-05-10T09:28:58;4.30;;;3.33;;
50555;SDS011;36508;52.512;13.450;2023-05-10T09:31:42;4.47;;;4.07;;
50555;SDS011;36508;52.512;13.450;2023-05-10T09:34:19;3.83;;;3.53;;
50555;SDS011;36508;52.512;13.450;2023-05-10T09:36:58;6.53;;;5.30;;
50555;SDS011;36508;52.512;13.450;2023-05-10T09:39:34;5.30;;;3.20;;
50555;SDS011;36508;52.512;13.450;2023-05-10T09:42:04;4.43;;;4.13;;
50555;SDS011;36508;52.512;13.450;2023-05-10T09:44:32;5.53;;;3.40;;
50555;SDS011;36508;52.512;13.450;2023-05-10T09:46:59;4.97;;;4.67;;
50555;SDS011;36508;52.512;13.450;2023-05-10T09:49:26;4.87;;;4.47;;
50555;SDS011;36508;52.512;13.450;2023-05-10T09:52:04;3.67;;;3.40;;
50555;SDS011;36508;52.512;13.450;2023-05-10T09:54:31;4.43;;;4.10;;
50555;SDS011;36508;52.512;13.450;2023-05-10T09:56:57;3.93;;;3.73;;
50555;SDS011;36508;52.512;13.450;2023-05-10T09:59:26;5.07;;;4.60;;
50555;SDS011;36508;52.512;13.450;2023-05-10T10:01:55;6.83;;;5.00;;
50555;SDS011;36508;52.512;13.450;2023-05-10T10:04:22;7.27;;;5.30;;
50555;SDS011;36508;52.512;13.450;2023-05-10T10:06:57;5.00;;;4.63;;
50555;SDS011;36508;52.512;13.450;2023-05-10T10:09:33;3.30;;;3.10;;
50555;SDS011;36508;52.512;13.450;2023-05-10T10:12:00;3.40;;;3.20;;
50555;SDS011;36508;52.512;13.450;2023-05-10T10:14:26;5.43;;;3.50;;
50555;SDS011;36508;52.512;13.450;2023-05-10T10:16:53;6.63;;;3.50;;
50555;SDS011;36508;52.512;13.450;2023-05-10T10:19:19;3.43;;;3.00;;
50555;SDS011;36508;52.512;13.450;2023-05-10T10:21:45;5.07;;;3.20;;
50555;SDS011;36508;52.512;13.450;2023-05-10T10:24:12;6.80;;;3.43;;
50555;SDS011;36508;52.512;13.450;2023-05-10T10:26:39;3.20;;;3.00;;
50555;SDS011;36508;52.512;13.450;2023-05-10T10:34:54;5.43;;;5.03;;
50555;SDS011;36508;52.512;13.450;2023-05-10T10:37:21;4.23;;;3.87;;
50555;SDS011;36508;52.512;13.450;2023-05-10T10:39:52;5.60;;;4.10;;
50555;SDS011;36508;52.512;13.450;2023-05-10T10:43:20;7.97;;;5.00;;
50555;SDS011;36508;52.512;13.450;2023-05-10T10:45:11;5.27;;;4.93;;
50555;SDS011;36508;52.512;13.450;2023-05-10T10:47:37;4.83;;;3.90;;
50555;SDS011;36508;52.512;13.450;2023-05-10T10:50:04;7.83;;;4.07;;
50555;SDS011;36508;52.512;13.450;2023-05-10T10:52:41;6.83;;;3.50;;
50555;SDS011;36508;52.512;13.450;2023-05-10T10:55:14;3.90;;;3.60;;
50555;SDS011;36508;52.512;13.450;2023-05-10T10:57:51;6.07;;;3.20;;
50555;SDS011;36508;52.512;13.450;2023-05-10T11:00:26;5.10;;;4.80;;
50555;SDS011;36508;52.512;13.450;2023-05-10T11:03:03;4.03;;;3.40;;
50555;SDS011;36508;52.512;13.450;2023-05-10T11:05:42;4.53;;;4.13;;
50555;SDS011;36508;52.512;13.450;2023-05-10T11:13:34;3.77;;;3.57;;
50555;SDS011;36508;52.512;13.450;2023-05-10T11:18:51;2.90;;;2.70;;
50555;SDS011;36508;52.512;13.450;2023-05-10T11:21:18;3.63;;;3.33;;
50555;SDS011;36508;52.512;13.450;2023-05-10T11:26:14;8.57;;;3.27;;
50555;SDS011;36508;52.512;13.450;2023-05-10T11:28:44;5.27;;;4.33;;
50555;SDS011;36508;52.512;13.450;2023-05-10T11:31:15;4.20;;;3.13;;
50555;SDS011;36508;52.512;13.450;2023-05-10T11:34:03;7.47;;;3.87;;
50555;SDS011;36508;52.512;13.450;2023-05-10T11:36:28;3.37;;;3.07;;
50555;SDS011;36508;52.512;13.450;2023-05-10T11:38:58;11.17;;;4.57;;
50555;SDS011;36508;52.512;13.450;2023-05-10T11:41:24;6.60;;;4.43;;
50555;SDS011;36508;52.512;13.450;2023-05-10T11:43:54;4.97;;;4.57;;
50555;SDS011;36508;52.512;13.450;2023-05-10T11:46:21;5.63;;;4.87;;
50555;SDS011;36508;52.512;13.450;2023-05-10T11:48:51;3.00;;;2.90;;
50555;SDS011;36508;52.512;13.450;2023-05-10T11:51:21;3.70;;;3.40;;
50555;SDS011;36508;52.512;13.450;2023-05-10T11:53:50;4.13;;;3.83;;
50555;SDS011;36508;52.512;13.450;2023-05-10T11:56:18;3.47;;;3.27;;
50555;SDS011;36508;52.512;13.450;2023-05-10T11:58:45;4.33;;;3.20;;
50555;SDS011;36508;52.512;13.450;2023-05-10T12:01:27;7.50;;;3.80;;
50555;SDS011;36508;52.512;13.450;2023-05-10T12:04:15;4.87;;;3.37;;
50555;SDS011;36508;52.512;13.450;2023-05-10T12:06:40;5.30;;;3.80;;
50555;SDS011;36508;52.512;13.450;2023-05-10T12:09:06;5.07;;;4.53;;
50555;SDS011;36508;52.512;13.450;2023-05-10T12:11:35;20.57;;;5.17;;
50555;SDS011;36508;52.512;13.450;2023-05-10T12:14:04;6.73;;;3.90;;
50555;SDS011;36508;52.512;13.450;2023-05-10T12:16:36;5.20;;;3.50;;
50555;SDS011;36508;52.512;13.450;2023-05-10T12:19:02;8.90;;;4.77;;
50555;SDS011;36508;52.512;13.450;2023-05-10T12:21:34;6.83;;;4.20;;
50555;SDS011;36508;52.512;13.450;2023-05-10T12:24:03;3.90;;;3.47;;
50555;SDS011;36508;52.512;13.450;2023-05-10T12:26:33;3.33;;;3.13;;
50555;SDS011;36508;52.512;13.450;2023-05-10T12:29:16;3.57;;;3.13;;
50555;SDS011;36508;52.512;13.450;2023-05-10T12:31:57;3.70;;;3.40;;
50555;SDS011;36508;52.512;13.450;2023-05-10T12:34:31;3.20;;;3.00;;
50555;SDS011;36508;52.512;13.450;2023-05-10T12:36:58;4.30;;;3.63;;
50555;SDS011;36508;52.512;13.450;2023-05-10T12:39:39;3.97;;;3.67;;
50555;SDS011;36508;52.512;13.450;2023-05-10T12:42:06;5.53;;;4.70;;
50555;SDS011;36508;52.512;13.450;2023-05-10T12:44:32;6.83;;;6.43;;
50555;SDS011;36508;52.512;13.450;2023-05-10T12:47:01;3.27;;;2.93;;
50555;SDS011;36508;52.512;13.450;2023-05-10T12:49:27;3.53;;;3.43;;
50555;SDS011;36508;52.512;13.450;2023-05-10T12:51:53;3.67;;;3.30;;
50555;SDS011;36508;52.512;13.450;2023-05-10T12:54:22;3.77;;;3.50;;
50555;SDS011;36508;52.512;13.450;2023-05-10T13:00:24;3.40;;;3.30;;
50555;SDS011;36508;52.512;13.450;2023-05-10T13:02:50;4.10;;;3.60;;
50555;SDS011;36508;52.512;13.450;2023-05-10T13:05:15;3.40;;;3.10;;
50555;SDS011;36508;52.512;13.450;2023-05-10T13:07:41;3.90;;;3.70;;
50555;SDS011;36508;52.512;13.450;2023-05-10T13:10:08;4.70;;;4.40;;
50555;SDS011;36508;52.512;13.450;2023-05-10T13:12:35;3.43;;;3.23;;
50555;SDS011;36508;52.512;13.450;2023-05-10T13:15:01;3.70;;;3.40;;
50555;SDS011;36508;52.512;13.450;2023-05-10T13:17:35;3.63;;;3.33;;
50555;SDS011;36508;52.512;13.450;2023-05-10T13:20:03;4.33;;;4.10;;
50555;SDS011;36508;52.512;13.450;2023-05-10T13:22:29;3.33;;;3.10;;
50555;SDS011;36508;52.512;13.450;2023-05-10T13:24:55;4.33;;;3.93;;
50555;SDS011;36508;52.512;13.450;2023-05-10T13:27:21;2.73;;;2.63;;
50555;SDS011;36508;52.512;13.450;2023-05-10T13:29:46;13.77;;;4.40;;
50555;SDS011;36508;52.512;13.450;2023-05-10T13:32:12;5.33;;;3.53;;
50555;SDS011;36508;52.512;13.450;2023-05-10T13:34:38;3.53;;;3.33;;
50555;SDS011;36508;52.512;13.450;2023-05-10T13:37:03;8.47;;;6.80;;
50555;SDS011;36508;52.512;13.450;2023-05-10T13:39:29;5.23;;;4.27;;
50555;SDS011;36508;52.512;13.450;2023-05-10T13:41:58;9.20;;;4.80;;
50555;SDS011;36508;52.512;13.450;2023-05-10T13:44:23;4.67;;;3.83;;
50555;SDS011;36508;52.512;13.450;2023-05-10T13:46:52;5.90;;;5.33;;
50555;SDS011;36508;52.512;13.450;2023-05-10T13:49:21;5.00;;;3.33;;
50555;SDS011;36508;52.512;13.450;2023-05-10T13:51:47;3.40;;;3.20;;
50555;SDS011;36508;52.512;13.450;2023-05-10T13:54:16;3.60;;;3.40;;
50555;SDS011;36508;52.512;13.450;2023-05-10T13:56:51;3.80;;;3.43;;
50555;SDS011;36508;52.512;13.450;2023-05-10T13:59:17;19.03;;;4.10;;
50555;SDS011;36508;52.512;13.450;2023-05-10T14:01:45;8.07;;;7.50;;
50555;SDS011;36508;52.512;13.450;2023-05-10T14:04:12;3.70;;;3.50;;
50555;SDS011;36508;52.512;13.450;2023-05-10T14:06:38;5.10;;;3.10;;
50555;SDS011;36508;52.512;13.450;2023-05-10T14:09:07;9.83;;;2.87;;
50555;SDS011;36508;52.512;13.450;2023-05-10T14:11:32;3.00;;;2.67;;
50555;SDS011;36508;52.512;13.450;2023-05-10T14:13:58;4.33;;;3.10;;
50555;SDS011;36508;52.512;13.450;2023-05-10T14:16:23;3.23;;;2.97;;
50555;SDS011;36508;52.512;13.450;2023-05-10T14:18:52;13.00;;;3.53;;
50555;SDS011;36508;52.512;13.450;2023-05-10T14:21:17;3.10;;;2.70;;
50555;SDS011;36508;52.512;13.450;2023-05-10T14:23:43;11.30;;;3.70;;
50555;SDS011;36508;52.512;13.450;2023-05-10T14:26:09;3.73;;;3.50;;
50555;SDS011;36508;52.512;13.450;2023-05-10T14:28:34;3.80;;;2.50;;
50555;SDS011;36508;52.512;13.450;2023-05-10T14:31:00;3.10;;;3.00;;
50555;SDS011;36508;52.512;13.450;2023-05-10T14:33:26;3.60;;;3.50;;
50555;SDS011;36508;52.512;13.450;2023-05-10T14:35:53;2.73;;;2.50;;
50555;SDS011;36508;52.512;13.450;2023-05-10T14:38:21;3.47;;;3.13;;
50555;SDS011;36508;52.512;13.450;2023-05-10T14:41:06;2.87;;;2.70;;
50555;SDS011;36508;52.512;13.450;2023-05-10T14:43:50;3.53;;;3.30;;
50555;SDS011;36508;52.512;13.450;2023-05-10T14:46:16;3.67;;;3.30;;
50555;SDS011;36508;52.512;13.450;2023-05-10T14:48:42;3.30;;;3.10;;
50555;SDS011;36508;52.512;13.450;2023-05-10T14:51:07;3.10;;;2.90;;
50555;SDS011;36508;52.512;13.450;2023-05-10T14:53:33;8.40;;;5.90;;
50555;SDS011;36508;52.512;13.450;2023-05-10T14:55:58;5.17;;;3.67;;
50555;SDS011;36508;52.512;13.450;2023-05-10T14:58:26;3.87;;;3.47;;
50555;SDS011;36508;52.512;13.450;2023-05-10T15:00:52;2.93;;;2.83;;
50555;SDS011;36508;52.512;13.450;2023-05-10T15:03:19;4.33;;;4.13;;
50555;SDS011;36508;52.512;13.450;2023-05-10T15:05:44;3.30;;;3.20;;
50555;SDS011;36508;52.512;13.450;2023-05-10T15:08:10;7.43;;;6.50;;
50555;SDS011;36508;52.512;13.450;2023-05-10T15:10:38;3.30;;;3.10;;
50555;SDS011;36508;52.512;13.450;2023-05-10T15:13:04;3.70;;;3.03;;
50555;SDS011;36508;52.512;13.450;2023-05-10T15:15:30;4.47;;;3.90;;
50555;SDS011;36508;52.512;13.450;2023-05-10T15:17:55;3.53;;;3.43;;
50555;SDS011;36508;52.512;13.450;2023-05-10T15:20:21;6.40;;;5.80;;
50555;SDS011;36508;52.512;13.450;2023-05-10T15:22:47;8.87;;;7.93;;
50555;SDS011;36508;52.512;13.450;2023-05-10T15:25:13;5.10;;;3.17;;